Portada
METAR-TAF:

METAR-TAF

Aeroports :

Alice Springs, Austràlia

latitud: 23-48S, longitud: 133-53E, altitud: 545 m

Observació

L'informe es va fer fa 35 minuts, a les 22:30 UTC
Vent 15 kt del Sud-Est
Temperatura 27°C
Humitat 48%
Pressió 1014 hPa
Visibilitat 10 km o més

METAR: YBAS 122230Z AUTO 14015KT 9999 // NCD 27/15 Q1014 RF00.0/000.4

Hora: 08:35 (23:05 UTC)

Pronòstic

L'informe es va fer fa 1 hora i 24 minuts, a les 21:41 UTC
Pronòstic vàlid del 12 a les 21 UTC al 13 a les 18 UTC
Vent 16 kt del Sud/Sud-Est amb ràfegues de 26 kt
Visibilitat 10 km o més
sense núvols per sota de 1500 mi sense presència de cumulonimbus.
A partir de les 13 a les 0600 UTC
Vent 12 kt del Sud/Sud-Est
Visibilitat 10 km o més
sense núvols per sota de 1500 mi sense presència de cumulonimbus.

TAF: YBAS 122141Z 1221/1318 15016G26KT CAVOK FM130600 16012KT CAVOK

Observacions i pronòstics meteorològics de més de 4000 aeroports (METAR i TAF).

Les estacions disponibles són els punts grocs i vermells al mapa.

Posi el ratolí al punt desitjat per veure el nom de l'estació.

Feu clic per veure les observacions i els pronòstics meteorològics.

Per canviar el mapa: feu clic els botons verds amb una creu de color negre per apropar; al botó verd amb un guió per allunyar la imatge; o en les fletxes verdes per a mapes adjacents.


METAR-TAF: